sensor_id;sensor_type;location;lat;lon;timestamp;P1;durP1;ratioP1;P2;durP2;ratioP2
50104;SDS011;47690;39.202;-77.198;2024-01-30T00:01:33;2.40;;;2.20;;
50104;SDS011;47690;39.202;-77.198;2024-01-30T00:04:02;2.08;;;1.88;;
50104;SDS011;47690;39.202;-77.198;2024-01-30T00:06:32;2.20;;;2.00;;
50104;SDS011;47690;39.202;-77.198;2024-01-30T00:09:01;2.00;;;1.90;;
50104;SDS011;47690;39.202;-77.198;2024-01-30T00:11:33;1.90;;;1.80;;
50104;SDS011;47690;39.202;-77.198;2024-01-30T00:14:03;2.10;;;1.90;;
50104;SDS011;47690;39.202;-77.198;2024-01-30T00:16:34;2.20;;;2.00;;
50104;SDS011;47690;39.202;-77.198;2024-01-30T00:19:03;2.22;;;2.03;;
50104;SDS011;47690;39.202;-77.198;2024-01-30T00:21:33;2.72;;;1.70;;
50104;SDS011;47690;39.202;-77.198;2024-01-30T00:24:04;1.80;;;1.70;;
50104;SDS011;47690;39.202;-77.198;2024-01-30T00:26:34;1.90;;;1.80;;
50104;SDS011;47690;39.202;-77.198;2024-01-30T00:29:03;1.80;;;1.70;;
50104;SDS011;47690;39.202;-77.198;2024-01-30T00:31:35;2.10;;;1.90;;
50104;SDS011;47690;39.202;-77.198;2024-01-30T00:34:09;1.83;;;1.73;;
50104;SDS011;47690;39.202;-77.198;2024-01-30T00:36:38;2.10;;;1.90;;
50104;SDS011;47690;39.202;-77.198;2024-01-30T00:39:06;2.10;;;1.90;;
50104;SDS011;47690;39.202;-77.198;2024-01-30T00:41:36;1.80;;;1.70;;
50104;SDS011;47690;39.202;-77.198;2024-01-30T00:44:05;1.80;;;1.70;;
50104;SDS011;47690;39.202;-77.198;2024-01-30T00:46:34;2.00;;;1.80;;
50104;SDS011;47690;39.202;-77.198;2024-01-30T00:49:03;2.10;;;1.90;;
50104;SDS011;47690;39.202;-77.198;2024-01-30T00:51:36;1.90;;;1.80;;
50104;SDS011;47690;39.202;-77.198;2024-01-30T00:54:04;1.70;;;1.60;;
50104;SDS011;47690;39.202;-77.198;2024-01-30T00:56:35;1.98;;;1.88;;
50104;SDS011;47690;39.202;-77.198;2024-01-30T00:59:04;2.00;;;1.80;;
50104;SDS011;47690;39.202;-77.198;2024-01-30T01:01:34;2.00;;;1.85;;
50104;SDS011;47690;39.202;-77.198;2024-01-30T01:04:03;1.88;;;1.77;;
50104;SDS011;47690;39.202;-77.198;2024-01-30T01:06:34;1.92;;;1.80;;
50104;SDS011;47690;39.202;-77.198;2024-01-30T01:09:03;1.90;;;1.75;;
50104;SDS011;47690;39.202;-77.198;2024-01-30T01:11:32;2.08;;;1.90;;
50104;SDS011;47690;39.202;-77.198;2024-01-30T01:14:00;2.00;;;1.80;;
50104;SDS011;47690;39.202;-77.198;2024-01-30T01:16:32;1.80;;;1.70;;
50104;SDS011;47690;39.202;-77.198;2024-01-30T01:19:02;1.67;;;1.58;;
50104;SDS011;47690;39.202;-77.198;2024-01-30T01:21:31;1.73;;;1.63;;
50104;SDS011;47690;39.202;-77.198;2024-01-30T01:24:00;2.10;;;1.90;;
50104;SDS011;47690;39.202;-77.198;2024-01-30T01:26:30;1.80;;;1.70;;
50104;SDS011;47690;39.202;-77.198;2024-01-30T01:29:00;1.70;;;1.60;;
50104;SDS011;47690;39.202;-77.198;2024-01-30T01:31:29;1.70;;;1.60;;
50104;SDS011;47690;39.202;-77.198;2024-01-30T01:34:00;1.67;;;1.58;;
50104;SDS011;47690;39.202;-77.198;2024-01-30T01:36:30;2.20;;;1.90;;
50104;SDS011;47690;39.202;-77.198;2024-01-30T01:39:00;1.80;;;1.70;;
50104;SDS011;47690;39.202;-77.198;2024-01-30T01:41:30;1.80;;;1.70;;
50104;SDS011;47690;39.202;-77.198;2024-01-30T01:44:01;1.65;;;1.55;;
50104;SDS011;47690;39.202;-77.198;2024-01-30T01:46:33;1.80;;;1.70;;
50104;SDS011;47690;39.202;-77.198;2024-01-30T01:49:04;1.80;;;1.70;;
50104;SDS011;47690;39.202;-77.198;2024-01-30T01:51:34;1.80;;;1.70;;
50104;SDS011;47690;39.202;-77.198;2024-01-30T01:54:04;1.90;;;1.80;;
50104;SDS011;47690;39.202;-77.198;2024-01-30T01:56:34;1.85;;;1.75;;
50104;SDS011;47690;39.202;-77.198;2024-01-30T01:59:06;1.77;;;1.67;;
50104;SDS011;47690;39.202;-77.198;2024-01-30T02:01:36;2.33;;;1.90;;
50104;SDS011;47690;39.202;-77.198;2024-01-30T02:04:05;1.80;;;1.70;;
50104;SDS011;47690;39.202;-77.198;2024-01-30T02:06:34;1.75;;;1.65;;
50104;SDS011;47690;39.202;-77.198;2024-01-30T02:09:03;1.80;;;1.70;;
50104;SDS011;47690;39.202;-77.198;2024-01-30T02:11:33;2.03;;;1.67;;
50104;SDS011;47690;39.202;-77.198;2024-01-30T02:14:05;1.80;;;1.70;;
50104;SDS011;47690;39.202;-77.198;2024-01-30T02:16:34;1.73;;;1.63;;
50104;SDS011;47690;39.202;-77.198;2024-01-30T02:19:07;1.55;;;1.45;;
50104;SDS011;47690;39.202;-77.198;2024-01-30T02:21:36;1.70;;;1.60;;
50104;SDS011;47690;39.202;-77.198;2024-01-30T02:24:06;1.73;;;1.63;;
50104;SDS011;47690;39.202;-77.198;2024-01-30T02:26:35;1.85;;;1.75;;
50104;SDS011;47690;39.202;-77.198;2024-01-30T02:29:04;1.70;;;1.60;;
50104;SDS011;47690;39.202;-77.198;2024-01-30T02:31:33;1.80;;;1.70;;
50104;SDS011;47690;39.202;-77.198;2024-01-30T02:34:04;1.80;;;1.70;;
50104;SDS011;47690;39.202;-77.198;2024-01-30T02:36:33;1.65;;;1.55;;
50104;SDS011;47690;39.202;-77.198;2024-01-30T02:39:03;1.80;;;1.70;;
50104;SDS011;47690;39.202;-77.198;2024-01-30T02:41:33;1.60;;;1.50;;
50104;SDS011;47690;39.202;-77.198;2024-01-30T02:44:03;1.60;;;1.50;;
50104;SDS011;47690;39.202;-77.198;2024-01-30T02:46:33;1.88;;;1.77;;
50104;SDS011;47690;39.202;-77.198;2024-01-30T02:49:01;1.80;;;1.70;;
50104;SDS011;47690;39.202;-77.198;2024-01-30T02:51:34;1.90;;;1.80;;
50104;SDS011;47690;39.202;-77.198;2024-01-30T02:54:03;1.60;;;1.50;;
50104;SDS011;47690;39.202;-77.198;2024-01-30T02:56:33;1.90;;;1.80;;
50104;SDS011;47690;39.202;-77.198;2024-01-30T02:59:03;1.83;;;1.73;;
50104;SDS011;47690;39.202;-77.198;2024-01-30T03:01:41;1.77;;;1.67;;
50104;SDS011;47690;39.202;-77.198;2024-01-30T03:04:12;1.80;;;1.70;;
50104;SDS011;47690;39.202;-77.198;2024-01-30T03:06:46;1.75;;;1.65;;
50104;SDS011;47690;39.202;-77.198;2024-01-30T03:09:16;1.60;;;1.50;;
50104;SDS011;47690;39.202;-77.198;2024-01-30T03:11:45;1.70;;;1.60;;
50104;SDS011;47690;39.202;-77.198;2024-01-30T03:14:14;1.70;;;1.60;;
50104;SDS011;47690;39.202;-77.198;2024-01-30T03:16:43;1.88;;;1.77;;
50104;SDS011;47690;39.202;-77.198;2024-01-30T03:19:11;1.80;;;1.70;;
50104;SDS011;47690;39.202;-77.198;2024-01-30T03:21:40;1.92;;;1.80;;
50104;SDS011;47690;39.202;-77.198;2024-01-30T03:24:09;1.70;;;1.60;;
50104;SDS011;47690;39.202;-77.198;2024-01-30T03:26:38;1.67;;;1.58;;
50104;SDS011;47690;39.202;-77.198;2024-01-30T03:29:06;1.70;;;1.60;;
50104;SDS011;47690;39.202;-77.198;2024-01-30T03:31:38;1.70;;;1.60;;
50104;SDS011;47690;39.202;-77.198;2024-01-30T03:34:08;1.80;;;1.70;;
50104;SDS011;47690;39.202;-77.198;2024-01-30T03:36:36;1.77;;;1.67;;
50104;SDS011;47690;39.202;-77.198;2024-01-30T03:39:05;1.65;;;1.55;;
50104;SDS011;47690;39.202;-77.198;2024-01-30T03:41:33;1.77;;;1.67;;
50104;SDS011;47690;39.202;-77.198;2024-01-30T03:44:03;1.80;;;1.70;;
50104;SDS011;47690;39.202;-77.198;2024-01-30T03:46:33;1.70;;;1.60;;
50104;SDS011;47690;39.202;-77.198;2024-01-30T03:49:03;1.45;;;1.40;;
50104;SDS011;47690;39.202;-77.198;2024-01-30T03:51:39;1.80;;;1.70;;
50104;SDS011;47690;39.202;-77.198;2024-01-30T03:54:08;1.70;;;1.60;;
50104;SDS011;47690;39.202;-77.198;2024-01-30T03:56:37;1.90;;;1.80;;
50104;SDS011;47690;39.202;-77.198;2024-01-30T03:59:05;1.80;;;1.70;;
50104;SDS011;47690;39.202;-77.198;2024-01-30T04:01:34;1.70;;;1.60;;
50104;SDS011;47690;39.202;-77.198;2024-01-30T04:04:03;1.55;;;1.45;;
50104;SDS011;47690;39.202;-77.198;2024-01-30T04:06:33;1.67;;;1.58;;
50104;SDS011;47690;39.202;-77.198;2024-01-30T04:09:02;1.60;;;1.50;;
50104;SDS011;47690;39.202;-77.198;2024-01-30T04:11:32;1.70;;;1.60;;
50104;SDS011;47690;39.202;-77.198;2024-01-30T04:14:02;1.52;;;1.42;;
50104;SDS011;47690;39.202;-77.198;2024-01-30T04:16:32;1.45;;;1.35;;
50104;SDS011;47690;39.202;-77.198;2024-01-30T04:19:04;1.67;;;1.58;;
50104;SDS011;47690;39.202;-77.198;2024-01-30T04:21:34;1.70;;;1.60;;
50104;SDS011;47690;39.202;-77.198;2024-01-30T04:24:03;1.65;;;1.55;;
50104;SDS011;47690;39.202;-77.198;2024-01-30T04:26:33;1.80;;;1.70;;
50104;SDS011;47690;39.202;-77.198;2024-01-30T04:29:02;1.55;;;1.45;;
50104;SDS011;47690;39.202;-77.198;2024-01-30T04:31:31;1.90;;;1.80;;
50104;SDS011;47690;39.202;-77.198;2024-01-30T04:34:01;1.60;;;1.50;;
50104;SDS011;47690;39.202;-77.198;2024-01-30T04:36:33;1.52;;;1.42;;
50104;SDS011;47690;39.202;-77.198;2024-01-30T04:39:03;1.52;;;1.42;;
50104;SDS011;47690;39.202;-77.198;2024-01-30T04:41:32;1.70;;;1.60;;
50104;SDS011;47690;39.202;-77.198;2024-01-30T04:44:02;1.33;;;1.27;;
50104;SDS011;47690;39.202;-77.198;2024-01-30T04:46:32;1.52;;;1.42;;
50104;SDS011;47690;39.202;-77.198;2024-01-30T04:49:02;1.52;;;1.42;;
50104;SDS011;47690;39.202;-77.198;2024-01-30T04:51:32;1.63;;;1.52;;
50104;SDS011;47690;39.202;-77.198;2024-01-30T04:54:01;1.38;;;1.27;;
50104;SDS011;47690;39.202;-77.198;2024-01-30T04:56:31;1.60;;;1.50;;
50104;SDS011;47690;39.202;-77.198;2024-01-30T04:59:00;1.70;;;1.60;;
50104;SDS011;47690;39.202;-77.198;2024-01-30T05:01:31;1.50;;;1.40;;
50104;SDS011;47690;39.202;-77.198;2024-01-30T05:04:01;1.70;;;1.60;;
50104;SDS011;47690;39.202;-77.198;2024-01-30T05:06:32;1.60;;;1.50;;
50104;SDS011;47690;39.202;-77.198;2024-01-30T05:09:03;1.42;;;1.33;;
50104;SDS011;47690;39.202;-77.198;2024-01-30T05:11:39;1.42;;;1.42;;
50104;SDS011;47690;39.202;-77.198;2024-01-30T05:14:09;1.45;;;1.38;;
50104;SDS011;47690;39.202;-77.198;2024-01-30T05:16:39;1.63;;;1.52;;
50104;SDS011;47690;39.202;-77.198;2024-01-30T05:19:08;1.55;;;1.45;;
50104;SDS011;47690;39.202;-77.198;2024-01-30T05:21:37;1.80;;;1.70;;
50104;SDS011;47690;39.202;-77.198;2024-01-30T05:24:06;1.60;;;1.50;;
50104;SDS011;47690;39.202;-77.198;2024-01-30T05:26:37;1.38;;;1.33;;
50104;SDS011;47690;39.202;-77.198;2024-01-30T05:29:09;1.98;;;1.80;;
50104;SDS011;47690;39.202;-77.198;2024-01-30T05:31:39;1.80;;;1.70;;
50104;SDS011;47690;39.202;-77.198;2024-01-30T05:34:08;1.30;;;1.27;;
50104;SDS011;47690;39.202;-77.198;2024-01-30T05:36:38;1.70;;;1.60;;
50104;SDS011;47690;39.202;-77.198;2024-01-30T05:39:06;1.60;;;1.50;;
50104;SDS011;47690;39.202;-77.198;2024-01-30T05:41:35;1.50;;;1.40;;
50104;SDS011;47690;39.202;-77.198;2024-01-30T05:44:06;1.80;;;1.70;;
50104;SDS011;47690;39.202;-77.198;2024-01-30T05:46:35;1.70;;;1.60;;
50104;SDS011;47690;39.202;-77.198;2024-01-30T05:49:04;1.73;;;1.63;;
50104;SDS011;47690;39.202;-77.198;2024-01-30T05:51:35;1.95;;;1.75;;
50104;SDS011;47690;39.202;-77.198;2024-01-30T05:54:05;1.70;;;1.60;;
50104;SDS011;47690;39.202;-77.198;2024-01-30T05:56:33;1.90;;;1.80;;
50104;SDS011;47690;39.202;-77.198;2024-01-30T05:59:03;1.45;;;1.40;;
50104;SDS011;47690;39.202;-77.198;2024-01-30T06:01:32;2.13;;;1.60;;
50104;SDS011;47690;39.202;-77.198;2024-01-30T06:04:02;1.60;;;1.50;;
50104;SDS011;47690;39.202;-77.198;2024-01-30T06:06:32;1.60;;;1.50;;
50104;SDS011;47690;39.202;-77.198;2024-01-30T06:09:03;1.73;;;1.63;;
50104;SDS011;47690;39.202;-77.198;2024-01-30T06:11:37;1.50;;;1.40;;
50104;SDS011;47690;39.202;-77.198;2024-01-30T06:14:05;1.50;;;1.40;;
50104;SDS011;47690;39.202;-77.198;2024-01-30T06:16:34;1.50;;;1.40;;
50104;SDS011;47690;39.202;-77.198;2024-01-30T06:19:03;1.50;;;1.40;;
50104;SDS011;47690;39.202;-77.198;2024-01-30T06:21:33;1.83;;;1.65;;
50104;SDS011;47690;39.202;-77.198;2024-01-30T06:24:04;1.70;;;1.60;;
50104;SDS011;47690;39.202;-77.198;2024-01-30T06:26:34;1.75;;;1.65;;
50104;SDS011;47690;39.202;-77.198;2024-01-30T06:29:03;1.50;;;1.40;;
50104;SDS011;47690;39.202;-77.198;2024-01-30T06:31:32;1.50;;;1.40;;
50104;SDS011;47690;39.202;-77.198;2024-01-30T06:34:02;1.70;;;1.60;;
50104;SDS011;47690;39.202;-77.198;2024-01-30T06:36:32;1.40;;;1.30;;
50104;SDS011;47690;39.202;-77.198;2024-01-30T06:39:06;1.40;;;1.40;;
50104;SDS011;47690;39.202;-77.198;2024-01-30T06:41:35;1.48;;;1.38;;
50104;SDS011;47690;39.202;-77.198;2024-01-30T06:44:04;1.50;;;1.40;;
50104;SDS011;47690;39.202;-77.198;2024-01-30T06:46:34;1.30;;;1.27;;
50104;SDS011;47690;39.202;-77.198;2024-01-30T06:49:03;1.23;;;1.23;;
50104;SDS011;47690;39.202;-77.198;2024-01-30T06:51:35;1.45;;;1.35;;
50104;SDS011;47690;39.202;-77.198;2024-01-30T06:54:03;1.70;;;1.60;;
50104;SDS011;47690;39.202;-77.198;2024-01-30T06:56:33;2.15;;;1.50;;
50104;SDS011;47690;39.202;-77.198;2024-01-30T06:59:02;1.70;;;1.60;;
50104;SDS011;47690;39.202;-77.198;2024-01-30T07:01:33;1.52;;;1.42;;
50104;SDS011;47690;39.202;-77.198;2024-01-30T07:04:03;1.30;;;1.30;;
50104;SDS011;47690;39.202;-77.198;2024-01-30T07:06:33;1.35;;;1.30;;
50104;SDS011;47690;39.202;-77.198;2024-01-30T07:09:02;1.50;;;1.40;;
50104;SDS011;47690;39.202;-77.198;2024-01-30T07:11:35;1.60;;;1.50;;
50104;SDS011;47690;39.202;-77.198;2024-01-30T07:14:05;1.30;;;1.30;;
50104;SDS011;47690;39.202;-77.198;2024-01-30T07:16:34;1.40;;;1.30;;
50104;SDS011;47690;39.202;-77.198;2024-01-30T07:19:04;2.15;;;1.63;;
50104;SDS011;47690;39.202;-77.198;2024-01-30T07:21:33;1.30;;;1.30;;
50104;SDS011;47690;39.202;-77.198;2024-01-30T07:24:02;1.50;;;1.40;;
50104;SDS011;47690;39.202;-77.198;2024-01-30T07:26:32;1.75;;;1.65;;
50104;SDS011;47690;39.202;-77.198;2024-01-30T07:29:00;1.35;;;1.25;;
50104;SDS011;47690;39.202;-77.198;2024-01-30T07:31:35;1.52;;;1.45;;
50104;SDS011;47690;39.202;-77.198;2024-01-30T07:34:04;1.70;;;1.60;;
50104;SDS011;47690;39.202;-77.198;2024-01-30T07:36:34;1.60;;;1.50;;
50104;SDS011;47690;39.202;-77.198;2024-01-30T07:39:03;1.50;;;1.40;;
50104;SDS011;47690;39.202;-77.198;2024-01-30T07:41:33;1.40;;;1.40;;
50104;SDS011;47690;39.202;-77.198;2024-01-30T07:44:05;1.60;;;1.50;;
50104;SDS011;47690;39.202;-77.198;2024-01-30T07:46:34;1.70;;;1.60;;
50104;SDS011;47690;39.202;-77.198;2024-01-30T07:49:03;1.60;;;1.50;;
50104;SDS011;47690;39.202;-77.198;2024-01-30T07:51:33;1.85;;;1.75;;
50104;SDS011;47690;39.202;-77.198;2024-01-30T07:54:04;1.30;;;1.27;;
50104;SDS011;47690;39.202;-77.198;2024-01-30T07:56:34;1.92;;;1.80;;
50104;SDS011;47690;39.202;-77.198;2024-01-30T07:59:03;1.60;;;1.50;;
50104;SDS011;47690;39.202;-77.198;2024-01-30T08:01:33;1.40;;;1.33;;
50104;SDS011;47690;39.202;-77.198;2024-01-30T08:04:03;1.48;;;1.40;;
50104;SDS011;47690;39.202;-77.198;2024-01-30T08:06:32;1.80;;;1.70;;
50104;SDS011;47690;39.202;-77.198;2024-01-30T08:09:02;1.58;;;1.48;;
50104;SDS011;47690;39.202;-77.198;2024-01-30T08:11:33;1.98;;;1.77;;
50104;SDS011;47690;39.202;-77.198;2024-01-30T08:14:02;1.70;;;1.60;;
50104;SDS011;47690;39.202;-77.198;2024-01-30T08:16:32;1.55;;;1.45;;
50104;SDS011;47690;39.202;-77.198;2024-01-30T08:19:05;1.60;;;1.50;;
50104;SDS011;47690;39.202;-77.198;2024-01-30T08:21:34;1.65;;;1.55;;
50104;SDS011;47690;39.202;-77.198;2024-01-30T08:24:06;1.58;;;1.48;;
50104;SDS011;47690;39.202;-77.198;2024-01-30T08:26:37;1.40;;;1.33;;
50104;SDS011;47690;39.202;-77.198;2024-01-30T08:29:06;1.40;;;1.40;;
50104;SDS011;47690;39.202;-77.198;2024-01-30T08:31:35;1.58;;;1.48;;
50104;SDS011;47690;39.202;-77.198;2024-01-30T08:34:06;1.35;;;1.30;;
50104;SDS011;47690;39.202;-77.198;2024-01-30T08:36:37;1.52;;;1.42;;
50104;SDS011;47690;39.202;-77.198;2024-01-30T08:39:06;1.27;;;1.27;;
50104;SDS011;47690;39.202;-77.198;2024-01-30T08:41:37;1.55;;;1.45;;
50104;SDS011;47690;39.202;-77.198;2024-01-30T08:44:06;1.55;;;1.45;;
50104;SDS011;47690;39.202;-77.198;2024-01-30T08:46:35;1.55;;;1.45;;
50104;SDS011;47690;39.202;-77.198;2024-01-30T08:49:04;1.25;;;1.25;;
50104;SDS011;47690;39.202;-77.198;2024-01-30T08:51:35;1.70;;;1.60;;
50104;SDS011;47690;39.202;-77.198;2024-01-30T08:54:07;1.17;;;1.17;;
50104;SDS011;47690;39.202;-77.198;2024-01-30T08:56:37;1.27;;;1.27;;
50104;SDS011;47690;39.202;-77.198;2024-01-30T08:59:06;1.48;;;1.40;;
50104;SDS011;47690;39.202;-77.198;2024-01-30T09:01:39;1.52;;;1.42;;
50104;SDS011;47690;39.202;-77.198;2024-01-30T09:04:22;1.60;;;1.50;;
50104;SDS011;47690;39.202;-77.198;2024-01-30T09:06:52;1.58;;;1.48;;
50104;SDS011;47690;39.202;-77.198;2024-01-30T09:09:21;1.52;;;1.42;;
50104;SDS011;47690;39.202;-77.198;2024-01-30T09:11:50;1.60;;;1.50;;
50104;SDS011;47690;39.202;-77.198;2024-01-30T09:14:19;1.20;;;1.20;;
50104;SDS011;47690;39.202;-77.198;2024-01-30T09:16:48;1.33;;;1.33;;
50104;SDS011;47690;39.202;-77.198;2024-01-30T09:19:18;1.45;;;1.35;;
50104;SDS011;47690;39.202;-77.198;2024-01-30T09:21:46;1.20;;;1.20;;
50104;SDS011;47690;39.202;-77.198;2024-01-30T09:24:15;1.70;;;1.60;;
50104;SDS011;47690;39.202;-77.198;2024-01-30T09:26:44;1.20;;;1.20;;
50104;SDS011;47690;39.202;-77.198;2024-01-30T09:29:13;1.60;;;1.50;;
50104;SDS011;47690;39.202;-77.198;2024-01-30T09:31:47;1.75;;;1.65;;
50104;SDS011;47690;39.202;-77.198;2024-01-30T09:34:17;1.30;;;1.30;;
50104;SDS011;47690;39.202;-77.198;2024-01-30T09:36:45;1.30;;;1.30;;
50104;SDS011;47690;39.202;-77.198;2024-01-30T09:39:14;1.55;;;1.45;;
50104;SDS011;47690;39.202;-77.198;2024-01-30T09:41:45;1.65;;;1.55;;
50104;SDS011;47690;39.202;-77.198;2024-01-30T09:44:17;1.50;;;1.40;;
50104;SDS011;47690;39.202;-77.198;2024-01-30T09:46:48;1.50;;;1.40;;
50104;SDS011;47690;39.202;-77.198;2024-01-30T09:49:19;1.60;;;1.50;;
50104;SDS011;47690;39.202;-77.198;2024-01-30T09:51:49;1.27;;;1.27;;
50104;SDS011;47690;39.202;-77.198;2024-01-30T09:54:18;1.17;;;1.15;;
50104;SDS011;47690;39.202;-77.198;2024-01-30T09:56:47;1.45;;;1.40;;
50104;SDS011;47690;39.202;-77.198;2024-01-30T09:59:15;1.75;;;1.65;;
50104;SDS011;47690;39.202;-77.198;2024-01-30T10:01:44;1.60;;;1.50;;
50104;SDS011;47690;39.202;-77.198;2024-01-30T10:04:15;1.60;;;1.50;;
50104;SDS011;47690;39.202;-77.198;2024-01-30T10:06:44;1.70;;;1.60;;
50104;SDS011;47690;39.202;-77.198;2024-01-30T10:09:12;1.35;;;1.35;;
50104;SDS011;47690;39.202;-77.198;2024-01-30T10:11:42;1.45;;;1.35;;
50104;SDS011;47690;39.202;-77.198;2024-01-30T10:14:10;1.80;;;1.70;;
50104;SDS011;47690;39.202;-77.198;2024-01-30T10:16:39;1.20;;;1.20;;
50104;SDS011;47690;39.202;-77.198;2024-01-30T10:19:07;1.60;;;1.50;;
50104;SDS011;47690;39.202;-77.198;2024-01-30T10:21:36;1.80;;;1.58;;
50104;SDS011;47690;39.202;-77.198;2024-01-30T10:24:04;1.50;;;1.40;;
50104;SDS011;47690;39.202;-77.198;2024-01-30T10:26:34;1.63;;;1.52;;
50104;SDS011;47690;39.202;-77.198;2024-01-30T10:29:02;1.55;;;1.45;;
50104;SDS011;47690;39.202;-77.198;2024-01-30T10:31:32;1.60;;;1.50;;
50104;SDS011;47690;39.202;-77.198;2024-01-30T10:34:06;1.63;;;1.52;;
50104;SDS011;47690;39.202;-77.198;2024-01-30T10:36:49;1.58;;;1.48;;
50104;SDS011;47690;39.202;-77.198;2024-01-30T10:39:24;1.20;;;1.20;;
50104;SDS011;47690;39.202;-77.198;2024-01-30T10:42:00;1.60;;;1.50;;
50104;SDS011;47690;39.202;-77.198;2024-01-30T10:47:30;1.45;;;1.35;;
50104;SDS011;47690;39.202;-77.198;2024-01-30T10:50:03;1.20;;;1.20;;
50104;SDS011;47690;39.202;-77.198;2024-01-30T10:52:34;1.70;;;1.60;;
50104;SDS011;47690;39.202;-77.198;2024-01-30T10:55:06;1.70;;;1.60;;
50104;SDS011;47690;39.202;-77.198;2024-01-30T10:57:40;1.45;;;1.45;;
50104;SDS011;47690;39.202;-77.198;2024-01-30T11:00:10;1.58;;;1.48;;
50104;SDS011;47690;39.202;-77.198;2024-01-30T11:02:43;1.55;;;1.48;;
50104;SDS011;47690;39.202;-77.198;2024-01-30T11:05:14;1.50;;;1.40;;
50104;SDS011;47690;39.202;-77.198;2024-01-30T11:07:45;1.70;;;1.60;;
50104;SDS011;47690;39.202;-77.198;2024-01-30T11:10:14;1.70;;;1.60;;
50104;SDS011;47690;39.202;-77.198;2024-01-30T11:12:43;1.58;;;1.48;;
50104;SDS011;47690;39.202;-77.198;2024-01-30T11:15:18;1.60;;;1.50;;
50104;SDS011;47690;39.202;-77.198;2024-01-30T11:20:25;1.70;;;1.60;;
50104;SDS011;47690;39.202;-77.198;2024-01-30T11:22:56;1.95;;;1.80;;
50104;SDS011;47690;39.202;-77.198;2024-01-30T11:25:25;1.60;;;1.50;;
50104;SDS011;47690;39.202;-77.198;2024-01-30T11:27:55;1.48;;;1.38;;
50104;SDS011;47690;39.202;-77.198;2024-01-30T11:30:31;1.48;;;1.38;;
50104;SDS011;47690;39.202;-77.198;2024-01-30T11:33:04;1.40;;;1.40;;
50104;SDS011;47690;39.202;-77.198;2024-01-30T11:35:36;1.63;;;1.52;;
50104;SDS011;47690;39.202;-77.198;2024-01-30T11:38:09;1.60;;;1.52;;
50104;SDS011;47690;39.202;-77.198;2024-01-30T11:40:42;1.60;;;1.50;;
50104;SDS011;47690;39.202;-77.198;2024-01-30T11:43:14;1.67;;;1.58;;
50104;SDS011;47690;39.202;-77.198;2024-01-30T11:45:45;1.30;;;1.30;;
50104;SDS011;47690;39.202;-77.198;2024-01-30T11:48:17;1.60;;;1.50;;
50104;SDS011;47690;39.202;-77.198;2024-01-30T11:50:46;1.90;;;1.70;;
50104;SDS011;47690;39.202;-77.198;2024-01-30T11:53:18;1.58;;;1.48;;
50104;SDS011;47690;39.202;-77.198;2024-01-30T11:55:50;1.60;;;1.50;;
50104;SDS011;47690;39.202;-77.198;2024-01-30T11:58:19;1.63;;;1.52;;
50104;SDS011;47690;39.202;-77.198;2024-01-30T12:00:57;1.42;;;1.42;;
50104;SDS011;47690;39.202;-77.198;2024-01-30T12:03:28;1.40;;;1.40;;
50104;SDS011;47690;39.202;-77.198;2024-01-30T12:05:59;1.33;;;1.33;;
50104;SDS011;47690;39.202;-77.198;2024-01-30T12:08:30;1.25;;;1.25;;
50104;SDS011;47690;39.202;-77.198;2024-01-30T12:11:06;1.50;;;1.42;;
50104;SDS011;47690;39.202;-77.198;2024-01-30T12:13:34;1.50;;;1.40;;
50104;SDS011;47690;39.202;-77.198;2024-01-30T12:16:03;1.58;;;1.48;;
50104;SDS011;47690;39.202;-77.198;2024-01-30T12:18:33;2.17;;;1.98;;
50104;SDS011;47690;39.202;-77.198;2024-01-30T12:21:03;1.70;;;1.60;;
50104;SDS011;47690;39.202;-77.198;2024-01-30T12:23:32;2.05;;;1.83;;
50104;SDS011;47690;39.202;-77.198;2024-01-30T12:26:04;2.00;;;1.90;;
50104;SDS011;47690;39.202;-77.198;2024-01-30T12:28:46;1.90;;;1.80;;
50104;SDS011;47690;39.202;-77.198;2024-01-30T12:31:16;1.73;;;1.63;;
50104;SDS011;47690;39.202;-77.198;2024-01-30T12:33:48;2.53;;;2.17;;
50104;SDS011;47690;39.202;-77.198;2024-01-30T12:36:18;2.20;;;2.00;;
50104;SDS011;47690;39.202;-77.198;2024-01-30T12:38:47;2.30;;;2.08;;
50104;SDS011;47690;39.202;-77.198;2024-01-30T12:41:16;2.20;;;1.98;;
50104;SDS011;47690;39.202;-77.198;2024-01-30T12:43:44;2.40;;;2.00;;
50104;SDS011;47690;39.202;-77.198;2024-01-30T12:46:16;2.50;;;2.30;;
50104;SDS011;47690;39.202;-77.198;2024-01-30T12:48:45;2.67;;;2.33;;
50104;SDS011;47690;39.202;-77.198;2024-01-30T12:51:14;2.20;;;2.00;;
50104;SDS011;47690;39.202;-77.198;2024-01-30T12:53:43;2.50;;;2.25;;
50104;SDS011;47690;39.202;-77.198;2024-01-30T12:56:11;2.53;;;2.30;;
50104;SDS011;47690;39.202;-77.198;2024-01-30T12:58:41;2.40;;;2.20;;
50104;SDS011;47690;39.202;-77.198;2024-01-30T13:01:14;3.38;;;2.25;;
50104;SDS011;47690;39.202;-77.198;2024-01-30T13:03:44;2.92;;;2.42;;
50104;SDS011;47690;39.202;-77.198;2024-01-30T13:06:13;2.45;;;2.25;;
50104;SDS011;47690;39.202;-77.198;2024-01-30T13:08:42;2.58;;;2.15;;
50104;SDS011;47690;39.202;-77.198;2024-01-30T13:11:10;2.97;;;2.50;;
50104;SDS011;47690;39.202;-77.198;2024-01-30T13:13:48;2.33;;;2.08;;
50104;SDS011;47690;39.202;-77.198;2024-01-30T13:16:17;3.22;;;2.70;;
50104;SDS011;47690;39.202;-77.198;2024-01-30T13:18:46;2.65;;;2.20;;
50104;SDS011;47690;39.202;-77.198;2024-01-30T13:21:14;2.42;;;2.20;;
50104;SDS011;47690;39.202;-77.198;2024-01-30T13:23:43;2.75;;;2.47;;
50104;SDS011;47690;39.202;-77.198;2024-01-30T13:26:12;2.95;;;2.50;;
50104;SDS011;47690;39.202;-77.198;2024-01-30T13:28:41;2.63;;;2.33;;
50104;SDS011;47690;39.202;-77.198;2024-01-30T13:31:12;2.97;;;2.30;;
50104;SDS011;47690;39.202;-77.198;2024-01-30T13:33:43;2.47;;;2.28;;
50104;SDS011;47690;39.202;-77.198;2024-01-30T13:36:12;2.80;;;2.38;;
50104;SDS011;47690;39.202;-77.198;2024-01-30T13:38:42;2.88;;;2.33;;
50104;SDS011;47690;39.202;-77.198;2024-01-30T13:41:10;3.28;;;2.22;;
50104;SDS011;47690;39.202;-77.198;2024-01-30T13:43:38;2.70;;;2.28;;
50104;SDS011;47690;39.202;-77.198;2024-01-30T13:46:07;4.05;;;2.35;;
50104;SDS011;47690;39.202;-77.198;2024-01-30T13:48:36;2.67;;;2.20;;
50104;SDS011;47690;39.202;-77.198;2024-01-30T13:51:07;2.97;;;2.50;;
50104;SDS011;47690;39.202;-77.198;2024-01-30T13:53:36;2.88;;;2.58;;
50104;SDS011;47690;39.202;-77.198;2024-01-30T13:56:05;2.80;;;2.47;;
50104;SDS011;47690;39.202;-77.198;2024-01-30T13:58:35;3.58;;;2.50;;
50104;SDS011;47690;39.202;-77.198;2024-01-30T14:01:04;2.80;;;2.50;;
50104;SDS011;47690;39.202;-77.198;2024-01-30T14:03:34;3.00;;;2.45;;
50104;SDS011;47690;39.202;-77.198;2024-01-30T14:06:03;2.75;;;2.30;;
50104;SDS011;47690;39.202;-77.198;2024-01-30T14:08:35;2.65;;;2.35;;
50104;SDS011;47690;39.202;-77.198;2024-01-30T14:11:05;2.60;;;2.38;;
50104;SDS011;47690;39.202;-77.198;2024-01-30T14:13:34;2.53;;;2.30;;
50104;SDS011;47690;39.202;-77.198;2024-01-30T14:16:04;3.05;;;2.40;;
50104;SDS011;47690;39.202;-77.198;2024-01-30T14:18:34;2.70;;;2.50;;
50104;SDS011;47690;39.202;-77.198;2024-01-30T14:21:03;3.10;;;2.60;;
50104;SDS011;47690;39.202;-77.198;2024-01-30T14:23:32;2.50;;;2.20;;
50104;SDS011;47690;39.202;-77.198;2024-01-30T14:26:02;2.70;;;2.40;;
50104;SDS011;47690;39.202;-77.198;2024-01-30T14:28:33;2.53;;;2.30;;
50104;SDS011;47690;39.202;-77.198;2024-01-30T14:31:03;2.40;;;2.20;;
50104;SDS011;47690;39.202;-77.198;2024-01-30T14:33:34;2.63;;;2.20;;
50104;SDS011;47690;39.202;-77.198;2024-01-30T14:36:04;2.20;;;2.00;;
50104;SDS011;47690;39.202;-77.198;2024-01-30T14:38:34;3.05;;;2.40;;
50104;SDS011;47690;39.202;-77.198;2024-01-30T14:41:03;2.45;;;2.25;;
50104;SDS011;47690;39.202;-77.198;2024-01-30T14:43:39;2.60;;;2.25;;